createdAt,value
2022-11-21T00:00:35.274Z,100498.81
2022-11-21T00:05:46.770Z,100519.84
2022-11-21T00:10:48.905Z,100521.41
2022-11-21T00:15:50.538Z,100508.28
2022-11-21T00:20:52.107Z,100517.59
2022-11-21T00:25:53.778Z,100510.88
2022-11-21T00:30:55.443Z,100500.53
2022-11-21T00:35:57.248Z,100506.81
2022-11-21T00:40:59.025Z,100505.69
2022-11-21T00:46:02.834Z,100497.97
2022-11-21T00:51:04.909Z,100497.63
2022-11-21T00:56:06.592Z,100479.34
2022-11-21T01:01:14.022Z,100469.31
2022-11-21T01:06:18.774Z,100454.34
2022-11-21T01:11:21.627Z,100446.91
2022-11-21T01:16:26.830Z,100443.25
2022-11-21T01:21:32.581Z,100457.28
2022-11-21T01:26:38.407Z,100461.81
2022-11-21T01:31:40.218Z,100453.53
2022-11-21T01:36:42.119Z,100465.88
2022-11-21T01:41:46.053Z,100471.19
2022-11-21T01:46:49.460Z,100472.75
2022-11-21T01:51:57.166Z,100472.50
2022-11-21T01:57:23.479Z,100475.59
2022-11-21T02:02:30.933Z,100470.03
2022-11-21T02:07:39.684Z,100463.63
2022-11-21T02:12:53.941Z,100458.22
2022-11-21T02:17:56.546Z,100462.66
2022-11-21T02:23:30.138Z,100464.09
2022-11-21T02:28:33.550Z,100450.63
2022-11-21T02:33:35.292Z,100446.34
2022-11-21T02:38:38.844Z,100443.75
2022-11-21T02:43:49.866Z,100419.69
2022-11-21T02:48:52.120Z,100427.88
2022-11-21T02:53:53.698Z,100435.50
2022-11-21T02:58:55.338Z,100435.72
2022-11-21T03:03:57.039Z,100416.56
2022-11-21T03:08:58.726Z,100404.50
2022-11-21T03:14:00.378Z,100398.34
2022-11-21T03:19:02.183Z,100395.47
2022-11-21T03:24:04.171Z,100395.22
2022-11-21T03:29:05.762Z,100403.22
2022-11-21T03:34:07.542Z,100403.38
2022-11-21T03:39:09.350Z,100414.09
2022-11-21T03:44:12.149Z,100407.66
2022-11-21T03:49:14.275Z,100398.22
2022-11-21T03:54:29.325Z,100388.50
2022-11-21T03:59:31.159Z,100384.63
2022-11-21T04:04:32.896Z,100379.44
2022-11-21T04:09:38.682Z,100393.94
2022-11-21T04:14:42.402Z,100383.50
2022-11-21T04:19:43.986Z,100378.66
2022-11-21T04:24:45.701Z,100374.06
2022-11-21T04:29:47.814Z,100368.50
2022-11-21T04:34:49.486Z,100360.22
2022-11-21T04:39:51.169Z,100345.16
2022-11-21T04:44:52.803Z,100332.59
2022-11-21T04:49:54.382Z,100339.59
2022-11-21T04:54:58.066Z,100326.00
2022-11-21T05:00:01.971Z,100334.84
2022-11-21T05:05:03.678Z,100324.53
2022-11-21T05:10:06.701Z,100334.88
2022-11-21T05:15:08.915Z,100327.16
2022-11-21T05:20:11.207Z,100322.56
2022-11-21T05:25:13.897Z,100311.81
2022-11-21T05:30:16.022Z,100303.25
2022-11-21T05:35:17.750Z,100295.66
2022-11-21T05:40:19.279Z,100303.53
2022-11-21T05:45:20.899Z,100301.72
2022-11-21T05:50:22.803Z,100292.84
2022-11-21T05:55:24.414Z,100290.94
2022-11-21T06:00:59.741Z,100283.38
2022-11-21T06:06:20.902Z,100272.16
2022-11-21T06:11:34.587Z,100279.03
2022-11-21T06:16:36.263Z,100269.56
2022-11-21T06:21:38.090Z,100268.28
2022-11-21T06:26:39.814Z,100250.16
2022-11-21T06:31:41.457Z,100264.31
2022-11-21T06:36:44.740Z,100250.84
2022-11-21T06:41:51.116Z,100238.56
2022-11-21T06:46:52.917Z,100232.72
2022-11-21T06:51:54.569Z,100235.66
2022-11-21T06:56:56.220Z,100239.56
2022-11-21T07:01:57.881Z,100231.97
2022-11-21T07:07:00.048Z,100208.84
2022-11-21T07:12:21.642Z,100206.06
2022-11-21T07:17:23.306Z,100213.03
2022-11-21T07:22:25.036Z,100212.16
2022-11-21T07:27:26.716Z,100212.16
2022-11-21T07:32:28.740Z,100200.38
2022-11-21T07:37:30.420Z,100201.69
2022-11-21T07:42:33.236Z,100202.25
2022-11-21T07:47:35.051Z,100199.75
2022-11-21T07:52:39.213Z,100190.28
2022-11-21T07:57:40.830Z,100190.84
2022-11-21T08:02:42.442Z,100186.97
2022-11-21T08:07:44.164Z,100177.81
2022-11-21T08:12:47.136Z,100164.91
2022-11-21T08:17:49.062Z,100167.31
2022-11-21T08:22:50.743Z,100156.28
2022-11-21T08:27:56.541Z,100149.03
2022-11-21T08:33:01.119Z,100139.25
2022-11-21T08:38:02.819Z,100135.97
2022-11-21T08:43:09.660Z,100133.88
2022-11-21T08:48:11.904Z,100125.25
2022-11-21T08:53:23.742Z,100124.16
2022-11-21T08:58:25.414Z,100110.94
2022-11-21T09:03:31.143Z,100112.09
2022-11-21T09:08:33.606Z,100108.84
2022-11-21T09:13:36.529Z,100103.25
2022-11-21T09:18:38.184Z,100088.84
2022-11-21T09:23:39.983Z,100083.53
2022-11-21T09:28:41.661Z,100071.53
2022-11-21T09:33:43.336Z,100067.91
2022-11-21T09:44:43.989Z,100052.75
2022-11-21T09:49:50.107Z,100055.22
2022-11-21T09:54:58.272Z,100058.34
2022-11-21T10:00:01.513Z,100058.41
2022-11-21T10:05:15.272Z,100050.06
2022-11-21T10:11:11.544Z,100032.69
2022-11-21T10:16:29.219Z,100018.75
2022-11-21T10:21:50.456Z,100019.22
2022-11-21T10:26:54.564Z,100010.63
2022-11-21T10:32:01.793Z,100004.53
2022-11-21T10:37:13.500Z,99999.25
2022-11-21T10:42:30.672Z,99994.19
2022-11-21T10:47:37.586Z,99987.91
2022-11-21T10:52:45.089Z,99984.03
2022-11-21T10:57:51.771Z,99980.28
2022-11-21T11:03:04.846Z,99967.84
2022-11-21T11:08:12.438Z,99964.94
2022-11-21T11:13:46.825Z,99947.59
2022-11-21T11:19:02.847Z,99944.69
2022-11-21T11:24:10.451Z,99934.28
2022-11-21T11:29:18.283Z,99928.50
2022-11-21T11:34:20.357Z,99915.84
2022-11-21T11:39:35.346Z,99904.47
2022-11-21T11:45:24.855Z,99873.22
2022-11-21T11:50:32.387Z,99865.69
2022-11-21T11:55:55.841Z,99858.66
2022-11-21T12:01:06.639Z,99839.34
2022-11-21T12:06:38.245Z,99831.75
2022-11-21T12:12:09.754Z,99828.56
2022-11-21T12:17:14.928Z,99807.16
2022-11-21T12:22:16.683Z,99807.28
2022-11-21T12:27:32.851Z,99807.03
2022-11-21T12:32:50.348Z,99787.81
2022-11-21T12:38:15.587Z,99767.19
2022-11-21T12:43:47.139Z,99751.59
2022-11-21T12:49:07.343Z,99748.03
2022-11-21T12:54:38.913Z,99746.28
2022-11-21T13:00:02.506Z,99729.47
2022-11-21T13:05:10.609Z,99710.34
2022-11-21T13:10:15.783Z,99695.25
2022-11-21T13:15:39.890Z,99699.53
2022-11-21T13:20:48.729Z,99677.25
2022-11-21T13:25:50.564Z,99667.81
2022-11-21T13:31:00.931Z,99646.59
2022-11-21T13:36:04.683Z,99643.50
2022-11-21T13:41:26.366Z,99631.91
2022-11-21T13:46:59.712Z,99619.25
2022-11-21T13:52:12.401Z,99615.50
2022-11-21T13:57:51.643Z,99594.63
2022-11-21T14:03:20.853Z,99598.78
2022-11-21T14:08:25.349Z,99590.31
2022-11-21T14:13:34.670Z,99579.06
2022-11-21T14:18:38.933Z,99578.41
2022-11-21T14:23:44.365Z,99571.75
2022-11-21T14:28:46.130Z,99554.47
2022-11-21T14:34:00.862Z,99551.06
2022-11-21T14:44:38.287Z,99529.47
2022-11-21T14:49:40.021Z,99530.88
2022-11-21T14:55:13.493Z,99531.75
2022-11-21T15:00:36.071Z,99523.16
2022-11-21T15:11:00.467Z,99511.09
2022-11-21T15:16:13.092Z,99512.16
2022-11-21T15:21:16.412Z,99499.88
2022-11-21T15:26:35.698Z,99500.66
2022-11-21T15:31:37.657Z,99480.00
2022-11-21T15:36:47.261Z,99470.75
2022-11-21T15:41:49.005Z,99459.81
2022-11-21T15:46:52.213Z,99447.66
2022-11-21T15:52:10.377Z,99442.84
2022-11-21T15:57:12.884Z,99437.97
2022-11-21T16:02:15.665Z,99442.66
2022-11-21T16:07:17.438Z,99436.06
2022-11-21T16:12:19.171Z,99430.13
2022-11-21T16:17:21.323Z,99418.34
2022-11-21T16:22:23.036Z,99407.22
2022-11-21T16:27:32.100Z,99393.09
2022-11-21T16:32:36.223Z,99371.22
2022-11-21T16:37:37.996Z,99359.88
2022-11-21T16:42:39.693Z,99350.19
2022-11-21T16:47:45.837Z,99338.78
2022-11-21T16:52:50.807Z,99332.09
2022-11-21T16:57:54.948Z,99310.81
2022-11-21T17:02:58.048Z,99308.53
2022-11-21T17:07:59.687Z,99302.41
2022-11-21T17:13:02.414Z,99295.72
2022-11-21T17:18:04.027Z,99296.50
2022-11-21T17:23:05.913Z,99286.22
2022-11-21T17:28:10.255Z,99282.88
2022-11-21T17:33:13.617Z,99274.03
2022-11-21T17:38:21.338Z,99272.72
2022-11-21T17:43:23.732Z,99261.72
2022-11-21T17:48:32.027Z,99247.78
2022-11-21T17:53:36.465Z,99235.72
2022-11-21T17:58:38.625Z,99220.88
2022-11-21T18:03:40.769Z,99221.34
2022-11-21T18:08:44.468Z,99210.13
2022-11-21T18:13:46.500Z,99200.03
2022-11-21T18:18:49.768Z,99191.41
2022-11-21T18:23:55.942Z,99190.09
2022-11-21T18:29:28.771Z,99183.78
2022-11-21T18:34:22.636Z,99175.38
2022-11-21T18:39:25.148Z,99156.72
2022-11-21T18:44:27.226Z,99145.53
2022-11-21T18:49:29.287Z,99141.13
2022-11-21T18:54:31.262Z,99133.75
2022-11-21T18:59:33.395Z,99132.22
2022-11-21T19:04:35.205Z,99134.34
2022-11-21T19:09:37.206Z,99122.31
2022-11-21T19:14:39.470Z,99118.59
2022-11-21T19:19:41.305Z,99108.31
2022-11-21T19:24:54.903Z,99096.69
2022-11-21T19:29:56.678Z,99092.72
2022-11-21T19:34:58.378Z,99098.56
2022-11-21T19:40:00.143Z,99085.38
2022-11-21T19:45:01.811Z,99091.28
2022-11-21T19:50:03.618Z,99082.03
2022-11-21T19:55:05.695Z,99071.75
2022-11-21T20:00:07.975Z,99069.25
2022-11-21T20:05:11.713Z,99061.25
2022-11-21T20:10:13.529Z,99047.31
2022-11-21T20:15:15.237Z,99035.88
2022-11-21T20:20:19.334Z,99021.19
2022-11-21T20:25:21.087Z,99020.16
2022-11-21T20:30:25.084Z,99007.53
2022-11-21T20:35:26.829Z,99007.91
2022-11-21T20:40:28.578Z,99004.75
2022-11-21T20:56:15.677Z,98994.53
2022-11-21T21:01:19.949Z,98984.59
2022-11-21T21:06:24.265Z,98978.50
2022-11-21T21:11:51.020Z,98978.94
2022-11-21T21:16:55.152Z,98961.69
2022-11-21T21:21:56.852Z,98956.50
2022-11-21T21:27:00.469Z,98951.63
2022-11-21T21:32:02.101Z,98944.88
2022-11-21T21:37:03.722Z,98934.97
2022-11-21T21:42:05.454Z,98929.53
2022-11-21T21:47:11.161Z,98936.47
2022-11-21T21:52:12.851Z,98910.03
2022-11-21T21:57:14.665Z,98921.31
2022-11-21T22:02:16.471Z,98921.31
2022-11-21T22:07:19.915Z,98916.28
2022-11-21T22:12:21.753Z,98896.53
2022-11-21T22:17:23.441Z,98899.75
2022-11-21T22:22:25.109Z,98899.09
2022-11-21T22:27:26.806Z,98883.34
2022-11-21T22:32:28.426Z,98885.03
2022-11-21T22:37:30.211Z,98888.22
2022-11-21T22:42:31.980Z,98885.28
2022-11-21T22:47:33.837Z,98880.22
2022-11-21T22:52:52.848Z,98874.56
2022-11-21T22:57:58.603Z,98863.00
2022-11-21T23:03:00.284Z,98857.53
2022-11-21T23:08:01.929Z,98854.19
2022-11-21T23:13:03.625Z,98843.25
2022-11-21T23:18:05.354Z,98838.22
2022-11-21T23:23:08.002Z,98844.13
2022-11-21T23:28:09.737Z,98840.78
2022-11-21T23:33:11.771Z,98838.66
2022-11-21T23:38:15.339Z,98826.75
2022-11-21T23:43:18.190Z,98833.59
2022-11-21T23:48:21.149Z,98842.03
2022-11-21T23:53:22.978Z,98842.25
2022-11-21T23:58:24.697Z,98846.63
